• Join FlightAware (Why Join?)
  • Login
  • US Flag 
06:10AM EDT


 

Airport Tracker/Info


-or-


 

Live Flight TrackerFlight Track Log ✈ SKW5631 ✈ 10-Jun-2013 ✈ KSFO - KBUR

Flight Track Log - Related Links

Times and Time Zones

All times are in EDT time to prevent confusion due to time zone crossing. See the SKW5631 flight status page for this flight to view local times or setup timezone preferences in your user account.

Time Position Orientation Groundspeed Altitude Reporting Facility
EDT Latitude Longitude Course Direction KTS MPH feet Rate Location/Type
10:37PM 36.5264 -121.0355 135° Southeast  Level Estimated
10:38PM 36.4346 -120.9255 136° Southeast  Level Estimated
10:39PM 36.3428 -120.8159 136° Southeast  Level Estimated
10:40PM 36.2509 -120.7065 136° Southeast  Level Estimated
10:41PM 36.1589 -120.5973 136° Southeast  Level Estimated
10:42PM 36.0667 -120.4884 136° Southeast  Level Estimated
10:43PM 35.9745 -120.3798 136° Southeast  Level Estimated
10:44PM 35.8822 -120.2714 136° Southeast  Level Estimated
10:45PM 35.7897 -120.1633 136° Southeast  Level Estimated
10:46PM 35.6972 -120.0554 137° Southeast  Level Estimated
10:47PM 35.6046 -119.9478 137° Southeast  Level Estimated
10:48PM 35.5119 -119.8404 137° Southeast  Level Estimated
10:49PM 35.4191 -119.7333 137° Southeast  Level Estimated
10:50PM 35.3262 -119.6264 137° Southeast  Level Estimated
10:51PM 35.2332 -119.5197 137° Southeast  Level Estimated
10:52PM 35.1401 -119.4133 137° Southeast  Level Estimated
10:53PM 35.0469 -119.3072 137° Southeast  Level Estimated
10:54PM 34.9536 -119.2013 137° Southeast  Level Estimated
10:55PM 34.8603 -119.0956 137° Southeast  Level Estimated
10:56PM 34.7668 -118.9902 137° Southeast  Level Estimated
10:57PM 34.6733 -118.8850 137° Southeast  Level Estimated
10:58PM 34.5796 -118.7800 137° Southeast  Level Estimated
10:59PM 34.4859 -118.6753 137° Southeast  Level Estimated
11:00PM 34.3921 -118.5708 137° Southeast  Level Estimated
11:01PM 34.2982 -118.4666 137° Southeast  Level Estimated
11:02PM 34.2042 -118.3626 138° Southeast  Level Estimated
11:03PM 34.2007 -118.3587 138° Southeast  Level Estimated
11:04PM 34.2007 -118.3587 140° Southeast  Level Estimated
11:05PM 34.2007 -118.3587 140° Southeast  Level Estimated
11:06PM 34.2007 -118.3587 140° Southeast  Level Estimated
11:07PM 34.2007 -118.3587 140° Southeast  Level Estimated
11:08PM 34.2007 -118.3587 140° Southeast  Level Estimated
11:09PM 34.2007 -118.3587 140° Southeast  Level Estimated
11:10PM 34.2007 -118.3587 140° Southeast  Level Estimated
11:11PM 34.2007 -118.3587 140° Southeast  Level Estimated
11:12PM 34.2007 -118.3587 140° Southeast  Level Estimated
11:13PM 34.2007 -118.3587 140° Southeast  Level Estimated
11:14PM 34.2007 -118.3587 140° Southeast  Level Estimated
11:15PM 34.2007 -118.3587 140° Southeast  Level Estimated
11:16PM 34.2007 -118.3587 140° Southeast  Level Estimated
11:17PM 34.2007 -118.3587 140° Southeast  Level Estimated
11:18PM 34.2007 -118.3587 140° Southeast  Level Estimated